createdAt,value
2023-03-16T00:01:06.685Z,98980.73
2023-03-16T00:03:36.792Z,98991.59
2023-03-16T00:06:06.334Z,98994.71
2023-03-16T00:08:37.317Z,99004.27
2023-03-16T00:11:06.068Z,99010.61
2023-03-16T00:13:34.653Z,99035.03
2023-03-16T00:16:07.963Z,99045.64
2023-03-16T00:18:39.394Z,99047.45
2023-03-16T00:21:08.000Z,99056.17
2023-03-16T00:23:37.475Z,99069.02
2023-03-16T00:26:09.519Z,99081.02
2023-03-16T00:28:39.987Z,99088.41
2023-03-16T00:31:12.059Z,99093.45
2023-03-16T00:33:45.283Z,99096.91
2023-03-16T00:36:14.100Z,99104.63
2023-03-16T00:38:49.559Z,99113.17
2023-03-16T00:41:18.852Z,99115.22
2023-03-16T00:43:49.274Z,99124.16
2023-03-16T00:46:18.755Z,99138.70
2023-03-16T00:48:48.905Z,99149.42
2023-03-16T00:51:19.588Z,99154.61
2023-03-16T00:53:49.240Z,99163.02
2023-03-16T00:56:20.489Z,99169.35
2023-03-16T00:58:49.907Z,99188.55
2023-03-16T01:01:20.083Z,99207.95
2023-03-16T01:03:50.222Z,99230.55
2023-03-16T01:06:20.883Z,99256.88
2023-03-16T01:08:49.717Z,99276.91
2023-03-16T01:11:20.499Z,99307.29
2023-03-16T01:13:49.906Z,99337.89
2023-03-16T01:16:19.293Z,99384.16
2023-03-16T01:18:52.773Z,99426.63
2023-03-16T01:21:22.089Z,99484.43
2023-03-16T01:23:54.070Z,99531.73
2023-03-16T01:26:25.465Z,99576.16
2023-03-16T01:28:55.313Z,99617.09
2023-03-16T01:31:24.358Z,99665.48
2023-03-16T01:33:53.401Z,99704.54
2023-03-16T01:36:25.787Z,99744.48
2023-03-16T01:39:01.944Z,99774.27
2023-03-16T01:41:39.265Z,99818.83
2023-03-16T01:44:12.504Z,99858.75
2023-03-16T01:46:42.840Z,99887.58
2023-03-16T01:49:27.493Z,99914.92
2023-03-16T01:52:09.058Z,99939.09
2023-03-16T01:54:50.258Z,99969.06
2023-03-16T01:57:22.158Z,99996.91
2023-03-16T02:00:10.064Z,100019.64
2023-03-16T02:02:49.917Z,100041.23
2023-03-16T02:05:43.689Z,100068.77
2023-03-16T02:08:16.259Z,100095.73
2023-03-16T02:10:45.515Z,100121.50
2023-03-16T02:13:14.262Z,100144.77
2023-03-16T02:15:43.795Z,100250.42
2023-03-16T02:18:12.456Z,100280.79
2023-03-16T02:21:05.908Z,100292.84
2023-03-16T02:23:34.986Z,100320.03
2023-03-16T02:26:11.487Z,100345.48
2023-03-16T02:28:54.378Z,100347.30
2023-03-16T02:31:27.752Z,100356.17
2023-03-16T02:33:56.965Z,100370.54
2023-03-16T02:36:25.423Z,100368.67
2023-03-16T02:38:54.355Z,100358.56
2023-03-16T02:41:23.731Z,100360.80
2023-03-16T02:44:25.927Z,100362.30
2023-03-16T02:46:57.820Z,100355.36
2023-03-16T02:49:30.672Z,100356.33
2023-03-16T02:51:59.462Z,100354.34
2023-03-16T02:54:28.278Z,100352.77
2023-03-16T02:56:57.956Z,100349.58
2023-03-16T02:59:27.360Z,100352.51
2023-03-16T03:01:58.908Z,100348.48
2023-03-16T03:04:28.414Z,100346.42
2023-03-16T03:07:04.209Z,100345.05
2023-03-16T03:09:35.616Z,100345.13
2023-03-16T03:12:05.029Z,100354.31
2023-03-16T03:14:38.275Z,100351.08
2023-03-16T03:17:07.726Z,100352.50
2023-03-16T03:19:36.483Z,100349.69
2023-03-16T03:22:10.061Z,100339.48
2023-03-16T03:24:39.610Z,100338.67
2023-03-16T03:27:08.400Z,100342.71
2023-03-16T03:29:39.041Z,100336.28
2023-03-16T03:32:08.299Z,100327.12
2023-03-16T03:34:38.962Z,100323.27
2023-03-16T03:37:07.661Z,100319.81
2023-03-16T03:39:39.925Z,100314.23
2023-03-16T03:42:09.223Z,100308.64
2023-03-16T03:44:38.107Z,100311.02
2023-03-16T03:47:08.630Z,100305.45
2023-03-16T03:49:37.273Z,100311.70
2023-03-16T03:52:06.339Z,100312.64
2023-03-16T03:54:36.707Z,100312.08
2023-03-16T03:57:10.269Z,100316.00
2023-03-16T03:59:44.105Z,100316.45
2023-03-16T04:02:16.028Z,100313.34
2023-03-16T04:04:51.736Z,100312.81
2023-03-16T04:07:20.536Z,100312.33
2023-03-16T04:09:49.425Z,100312.05
2023-03-16T04:12:39.679Z,100298.27
2023-03-16T04:15:10.342Z,100297.15
2023-03-16T04:17:55.240Z,100297.52
2023-03-16T04:20:24.327Z,100300.64
2023-03-16T04:22:58.886Z,100298.11
2023-03-16T04:25:31.219Z,100295.61
2023-03-16T04:28:03.997Z,100295.33
2023-03-16T04:30:33.440Z,100292.17
2023-03-16T04:33:22.568Z,100290.17
2023-03-16T04:35:52.470Z,100289.11
2023-03-16T04:38:25.679Z,100297.35
2023-03-16T04:40:58.660Z,100306.51
2023-03-16T04:43:34.914Z,100303.23
2023-03-16T04:46:08.429Z,100304.30
2023-03-16T04:48:37.521Z,100314.15
2023-03-16T04:51:07.329Z,100315.04
2023-03-16T04:53:38.983Z,100322.50
2023-03-16T04:56:18.670Z,100319.89
2023-03-16T04:58:49.974Z,100324.52
2023-03-16T05:01:22.329Z,100325.96
2023-03-16T05:03:53.381Z,100327.16
2023-03-16T05:06:22.687Z,100329.80
2023-03-16T05:08:52.328Z,100326.99
2023-03-16T05:11:20.964Z,100323.96
2023-03-16T05:13:55.806Z,100318.02
2023-03-16T05:16:29.570Z,100316.95
2023-03-16T05:18:59.940Z,100314.04
2023-03-16T05:21:32.358Z,100307.70
2023-03-16T05:24:08.376Z,100307.42
2023-03-16T05:26:37.159Z,100303.96
2023-03-16T05:29:05.985Z,100304.59
2023-03-16T05:31:35.282Z,100307.66
2023-03-16T05:34:06.501Z,100303.35
2023-03-16T05:36:38.149Z,100296.77
2023-03-16T05:39:11.235Z,100293.34
2023-03-16T05:41:44.735Z,100293.81
2023-03-16T05:44:33.913Z,100290.89
2023-03-16T05:47:25.732Z,100290.27
2023-03-16T05:49:57.391Z,100292.02
2023-03-16T05:52:39.809Z,100292.81
2023-03-16T05:55:15.546Z,100295.08
2023-03-16T05:57:45.357Z,100295.40
2023-03-16T06:00:16.932Z,100297.85
2023-03-16T06:02:50.321Z,100290.91
2023-03-16T06:05:19.722Z,100287.13
2023-03-16T06:07:49.007Z,100288.41
2023-03-16T06:10:18.929Z,100285.55
2023-03-16T06:12:47.927Z,100279.84
2023-03-16T06:15:16.622Z,100275.94
2023-03-16T06:17:48.982Z,100272.19
2023-03-16T06:20:18.176Z,100269.95
2023-03-16T06:22:47.169Z,100275.39
2023-03-16T06:25:39.551Z,100282.27
2023-03-16T06:28:11.314Z,100276.28
2023-03-16T06:30:42.223Z,100272.48
2023-03-16T06:33:11.158Z,100270.67
2023-03-16T06:35:40.360Z,100263.21
2023-03-16T06:38:27.386Z,100252.48
2023-03-16T06:41:09.403Z,100249.88
2023-03-16T06:43:39.950Z,100253.42
2023-03-16T06:46:09.737Z,100249.83
2023-03-16T06:48:39.454Z,100244.45
2023-03-16T06:51:08.854Z,100237.86
2023-03-16T06:53:38.010Z,100234.58
2023-03-16T06:56:07.665Z,100231.55
2023-03-16T06:58:39.579Z,100228.58
2023-03-16T07:01:10.869Z,100229.96
2023-03-16T07:03:42.147Z,100226.38
2023-03-16T07:06:24.185Z,100218.70
2023-03-16T07:08:54.477Z,100224.05
2023-03-16T07:11:24.744Z,100222.13
2023-03-16T07:13:53.358Z,100224.46
2023-03-16T07:16:25.054Z,100223.23
2023-03-16T07:18:57.116Z,100219.95
2023-03-16T07:21:26.747Z,100220.41
2023-03-16T07:23:56.188Z,100222.88
2023-03-16T07:26:27.473Z,100221.45
2023-03-16T07:28:59.813Z,100212.48
2023-03-16T07:31:28.789Z,100205.80
2023-03-16T07:33:59.253Z,100200.73
2023-03-16T07:36:35.420Z,100197.71
2023-03-16T07:39:06.451Z,100202.94
2023-03-16T07:41:37.662Z,100205.12
2023-03-16T07:44:18.334Z,100204.52
2023-03-16T07:46:53.678Z,100199.77
2023-03-16T07:49:25.731Z,100200.29
2023-03-16T07:51:55.355Z,100198.59
2023-03-16T07:54:28.446Z,100198.92
2023-03-16T07:56:56.955Z,100203.50
2023-03-16T07:59:38.821Z,100199.25
2023-03-16T08:02:16.681Z,100196.14
2023-03-16T08:04:46.014Z,100193.98
2023-03-16T08:07:16.225Z,100191.89
2023-03-16T08:09:52.998Z,100195.61
2023-03-16T08:12:35.587Z,100186.73
2023-03-16T08:15:06.460Z,100190.20
2023-03-16T08:17:35.420Z,100193.73
2023-03-16T08:20:27.514Z,100187.06
2023-03-16T08:22:56.544Z,100192.10
2023-03-16T08:25:28.126Z,100188.08
2023-03-16T08:28:04.880Z,100184.48
2023-03-16T08:30:34.161Z,100187.88
2023-03-16T08:33:28.180Z,100179.27
2023-03-16T08:35:57.516Z,100187.41
2023-03-16T08:38:27.395Z,100188.40
2023-03-16T08:41:00.566Z,100190.02
2023-03-16T08:43:30.613Z,100192.44
2023-03-16T08:46:05.740Z,100192.38
2023-03-16T08:48:44.356Z,100195.77
2023-03-16T08:51:14.184Z,100196.17
2023-03-16T08:53:54.838Z,100199.66
2023-03-16T08:56:24.449Z,100201.41
2023-03-16T08:58:53.457Z,100207.97
2023-03-16T09:01:27.105Z,100211.28
2023-03-16T09:03:56.026Z,100209.33
2023-03-16T09:06:24.832Z,100211.88
2023-03-16T09:09:05.605Z,100206.61
2023-03-16T09:11:45.202Z,100200.67
2023-03-16T09:14:14.632Z,100205.94
2023-03-16T09:16:45.007Z,100206.26
2023-03-16T09:19:18.406Z,100206.23
2023-03-16T09:21:49.707Z,100200.86
2023-03-16T09:24:18.803Z,100203.77
2023-03-16T09:27:00.604Z,100200.54
2023-03-16T09:29:33.506Z,100193.87
2023-03-16T09:32:04.381Z,100200.70
2023-03-16T09:34:33.459Z,100194.75
2023-03-16T09:37:03.048Z,100189.52
2023-03-16T09:39:33.291Z,100195.17
2023-03-16T09:42:22.148Z,100192.38
2023-03-16T09:45:24.552Z,100189.50
2023-03-16T09:47:59.253Z,100188.02
2023-03-16T09:50:47.581Z,100194.42
2023-03-16T09:53:29.581Z,100191.70
2023-03-16T09:56:20.414Z,100188.22
2023-03-16T09:58:49.502Z,100184.48
2023-03-16T10:01:40.806Z,100191.21
2023-03-16T10:04:26.120Z,100187.65
2023-03-16T10:07:13.864Z,100185.73
2023-03-16T10:10:15.523Z,100182.98
2023-03-16T10:12:48.223Z,100176.92
2023-03-16T10:15:27.636Z,100182.94
2023-03-16T10:18:07.543Z,100183.55
2023-03-16T10:20:42.196Z,100178.65
2023-03-16T10:23:18.454Z,100182.00
2023-03-16T10:25:49.906Z,100178.10
2023-03-16T10:28:21.384Z,100183.38
2023-03-16T10:30:53.767Z,100182.95
2023-03-16T10:33:27.271Z,100185.84
2023-03-16T10:36:16.055Z,100185.30
2023-03-16T10:38:47.120Z,100182.40
2023-03-16T10:41:18.724Z,100185.59
2023-03-16T10:43:53.444Z,100188.02
2023-03-16T10:46:22.603Z,100191.23
2023-03-16T10:48:53.431Z,100196.19
2023-03-16T10:51:25.729Z,100191.01
2023-03-16T10:53:54.812Z,100188.19
2023-03-16T10:56:30.700Z,100192.02
2023-03-16T10:59:01.388Z,100193.35
2023-03-16T11:01:34.189Z,100190.73
2023-03-16T11:04:02.907Z,100191.21
2023-03-16T11:06:32.675Z,100190.75
2023-03-16T11:09:08.979Z,100195.31
2023-03-16T11:11:37.516Z,100194.24
2023-03-16T11:14:13.054Z,100201.63
2023-03-16T11:16:44.605Z,100194.98
2023-03-16T11:20:05.052Z,100191.77
2023-03-16T11:22:52.061Z,100186.09
2023-03-16T11:25:43.409Z,100195.95
2023-03-16T11:28:32.948Z,100190.48
2023-03-16T11:31:20.423Z,100185.55
2023-03-16T11:33:49.537Z,100183.88
2023-03-16T11:36:44.887Z,100183.14
2023-03-16T11:39:21.224Z,100168.28
2023-03-16T11:42:21.345Z,100163.08
2023-03-16T11:45:11.334Z,100148.19
2023-03-16T11:48:01.519Z,100144.63
2023-03-16T11:50:52.970Z,100143.19
2023-03-16T11:53:25.116Z,100137.73
2023-03-16T11:56:30.873Z,100147.51
2023-03-16T11:59:05.254Z,100142.10
2023-03-16T12:02:06.220Z,100149.11
2023-03-16T12:05:17.084Z,100140.99
2023-03-16T12:08:34.316Z,100142.67
2023-03-16T12:11:08.080Z,100148.46
2023-03-16T12:13:56.901Z,100154.85
2023-03-16T12:16:49.831Z,100156.23
2023-03-16T12:19:35.414Z,100162.98
2023-03-16T12:22:32.576Z,100172.20
2023-03-16T12:25:01.754Z,100167.89
2023-03-16T12:27:38.716Z,100180.27
2023-03-16T12:30:30.509Z,100186.77
2023-03-16T12:33:38.346Z,100178.50
2023-03-16T12:36:26.136Z,100175.20
2023-03-16T12:39:32.089Z,100185.77
2023-03-16T12:42:15.354Z,100195.05
2023-03-16T12:44:44.696Z,100206.69
2023-03-16T12:47:38.785Z,100210.91
2023-03-16T12:50:08.984Z,100215.64
2023-03-16T12:52:45.800Z,100221.23
2023-03-16T12:55:16.793Z,100221.58
2023-03-16T12:57:48.553Z,100221.23
2023-03-16T13:00:17.744Z,100220.20
2023-03-16T13:02:57.400Z,100220.65
2023-03-16T13:05:34.988Z,100216.30
2023-03-16T13:08:10.838Z,100223.64
2023-03-16T13:11:01.179Z,100220.99
2023-03-16T13:13:30.248Z,100225.44
2023-03-16T13:16:12.503Z,100232.48
2023-03-16T13:18:45.062Z,100227.02
2023-03-16T13:21:40.434Z,100236.25
2023-03-16T13:24:23.615Z,100239.61
2023-03-16T13:26:53.782Z,100244.48
2023-03-16T13:29:30.253Z,100252.27
2023-03-16T13:32:03.600Z,100254.30
2023-03-16T13:34:35.681Z,100253.80
2023-03-16T13:37:04.613Z,100254.49
2023-03-16T13:39:34.201Z,100254.31
2023-03-16T13:42:09.966Z,100258.21
2023-03-16T13:44:39.729Z,100259.37
2023-03-16T13:47:08.710Z,100268.35
2023-03-16T13:49:51.546Z,100268.24
2023-03-16T13:52:26.464Z,100265.12
2023-03-16T13:55:02.450Z,100268.12
2023-03-16T13:57:35.716Z,100270.32
2023-03-16T14:00:15.937Z,100268.92
2023-03-16T14:02:45.373Z,100272.89
2023-03-16T14:05:26.430Z,100281.45
2023-03-16T14:07:55.992Z,100279.41
2023-03-16T14:10:26.151Z,100278.89
2023-03-16T14:13:26.139Z,100277.91
2023-03-16T14:16:06.796Z,100276.60
2023-03-16T14:18:56.215Z,100277.34
2023-03-16T14:21:29.439Z,100272.87
2023-03-16T14:24:00.320Z,100282.13
2023-03-16T14:26:39.971Z,100278.61
2023-03-16T14:29:25.121Z,100277.91
2023-03-16T14:31:54.734Z,100276.20
2023-03-16T14:34:36.831Z,100284.18
2023-03-16T14:37:09.606Z,100283.38
2023-03-16T14:39:41.688Z,100285.70
2023-03-16T14:42:42.315Z,100285.38
2023-03-16T14:45:13.678Z,100284.32
2023-03-16T14:47:45.166Z,100295.97
2023-03-16T14:50:17.442Z,100297.64
2023-03-16T14:52:50.872Z,100301.75
2023-03-16T14:55:20.369Z,100308.48
2023-03-16T14:57:51.941Z,100313.21
2023-03-16T15:00:22.306Z,100316.50
2023-03-16T15:03:06.603Z,100320.45
2023-03-16T15:05:37.894Z,100314.47
2023-03-16T15:08:11.105Z,100319.72
2023-03-16T15:10:45.294Z,100318.67
2023-03-16T15:13:39.976Z,100321.86
2023-03-16T15:16:12.942Z,100319.77
2023-03-16T15:18:42.881Z,100328.79
2023-03-16T15:21:16.993Z,100331.91
2023-03-16T15:23:45.636Z,100329.45
2023-03-16T15:26:16.310Z,100331.58
2023-03-16T15:28:45.466Z,100330.81
2023-03-16T15:31:17.409Z,100331.91
2023-03-16T15:33:46.667Z,100325.05
2023-03-16T15:36:17.108Z,100326.04
2023-03-16T15:38:50.506Z,100326.06
2023-03-16T15:41:19.047Z,100329.36
2023-03-16T15:43:47.980Z,100330.92
2023-03-16T15:46:16.958Z,100331.46
2023-03-16T15:48:45.712Z,100333.80
2023-03-16T15:51:22.104Z,100341.36
2023-03-16T15:53:53.765Z,100340.91
2023-03-16T15:56:30.103Z,100340.57
2023-03-16T15:59:13.812Z,100341.87
2023-03-16T16:01:46.431Z,100351.50
2023-03-16T16:04:20.156Z,100350.80
2023-03-16T16:06:49.678Z,100351.67
2023-03-16T16:09:18.411Z,100349.30
2023-03-16T16:11:48.748Z,100346.96
2023-03-16T16:14:23.238Z,100342.89
2023-03-16T16:16:51.924Z,100342.22
2023-03-16T16:19:21.785Z,100338.31
2023-03-16T16:21:55.267Z,100336.00
2023-03-16T16:24:25.512Z,100339.17
2023-03-16T16:26:55.808Z,100339.19
2023-03-16T16:29:28.331Z,100334.97
2023-03-16T16:31:57.122Z,100336.84
2023-03-16T16:34:27.445Z,100333.79
2023-03-16T16:36:57.625Z,100331.85
2023-03-16T16:39:27.651Z,100329.61
2023-03-16T16:41:58.392Z,100332.09
2023-03-16T16:44:28.160Z,100330.71
2023-03-16T16:47:00.047Z,100327.92
2023-03-16T16:49:30.893Z,100329.88
2023-03-16T16:51:59.757Z,100326.79
2023-03-16T16:54:31.472Z,100327.25
2023-03-16T16:57:00.867Z,100324.64
2023-03-16T16:59:31.658Z,100321.81
2023-03-16T17:02:01.519Z,100321.55
2023-03-16T17:04:32.576Z,100321.94
2023-03-16T17:07:03.773Z,100325.95
2023-03-16T17:09:35.482Z,100325.98
2023-03-16T17:12:04.499Z,100328.88
2023-03-16T17:14:33.239Z,100328.92
2023-03-16T17:17:07.063Z,100329.54
2023-03-16T17:19:36.687Z,100331.50
2023-03-16T17:22:18.814Z,100328.35
2023-03-16T17:24:49.864Z,100319.27
2023-03-16T17:27:28.054Z,100317.22
2023-03-16T17:29:57.269Z,100315.18
2023-03-16T17:32:25.909Z,100319.41
2023-03-16T17:34:54.585Z,100314.52
2023-03-16T17:37:23.532Z,100313.86
2023-03-16T17:39:52.615Z,100315.01
2023-03-16T17:42:23.231Z,100313.73
2023-03-16T17:44:52.644Z,100315.23
2023-03-16T17:47:25.698Z,100312.66
2023-03-16T17:49:55.289Z,100313.72
2023-03-16T17:52:26.013Z,100314.27
2023-03-16T17:54:56.275Z,100316.02
2023-03-16T17:57:30.576Z,100314.66
2023-03-16T18:00:02.808Z,100313.10
2023-03-16T18:02:41.334Z,100315.90
2023-03-16T18:05:30.855Z,100314.21
2023-03-16T18:08:22.097Z,100305.07
2023-03-16T18:10:53.142Z,100299.80
2023-03-16T18:13:27.881Z,100304.04
2023-03-16T18:16:00.126Z,100299.95
2023-03-16T18:18:30.610Z,100301.55
2023-03-16T18:21:02.120Z,100300.13
2023-03-16T18:23:35.085Z,100302.97
2023-03-16T18:26:03.969Z,100299.46
2023-03-16T18:28:33.868Z,100294.13
2023-03-16T18:31:02.576Z,100292.23
2023-03-16T18:33:39.626Z,100286.98
2023-03-16T18:36:15.960Z,100284.83
2023-03-16T18:38:47.593Z,100281.72
2023-03-16T18:41:20.125Z,100284.38
2023-03-16T18:43:49.672Z,100276.70
2023-03-16T18:46:39.319Z,100279.80
2023-03-16T18:49:23.733Z,100269.17
2023-03-16T18:51:54.270Z,100271.13
2023-03-16T18:54:28.561Z,100271.86
2023-03-16T18:57:00.172Z,100267.59
2023-03-16T18:59:29.629Z,100270.27
2023-03-16T19:02:01.133Z,100266.52
2023-03-16T19:04:31.280Z,100268.47
2023-03-16T19:07:00.093Z,100268.30
2023-03-16T19:09:29.974Z,100266.55
2023-03-16T19:11:59.975Z,100262.45
2023-03-16T19:14:31.828Z,100267.74
2023-03-16T19:17:05.252Z,100267.99
2023-03-16T19:19:34.956Z,100269.67
2023-03-16T19:22:12.847Z,100264.71
2023-03-16T19:24:47.178Z,100259.19
2023-03-16T19:27:26.093Z,100251.19
2023-03-16T19:29:58.450Z,100242.94
2023-03-16T19:32:27.619Z,100240.02
2023-03-16T19:34:56.768Z,100235.36
2023-03-16T19:37:26.876Z,100236.11
2023-03-16T19:39:55.465Z,100228.17
2023-03-16T19:42:33.924Z,100225.36
2023-03-16T19:45:02.401Z,100220.77
2023-03-16T19:47:36.905Z,100222.68
2023-03-16T19:50:13.319Z,100227.15
2023-03-16T19:52:42.075Z,100227.25
2023-03-16T19:55:15.657Z,100228.52
2023-03-16T19:57:44.967Z,100224.11
2023-03-16T20:00:25.502Z,100219.69
2023-03-16T20:02:59.027Z,100213.56
2023-03-16T20:05:29.873Z,100203.80
2023-03-16T20:07:59.378Z,100193.92
2023-03-16T20:10:29.312Z,100180.84
2023-03-16T20:13:02.340Z,100176.42
2023-03-16T20:15:33.437Z,100171.64
2023-03-16T20:18:02.524Z,100170.81
2023-03-16T20:20:36.070Z,100168.97
2023-03-16T20:23:14.796Z,100167.77
2023-03-16T20:25:43.226Z,100163.62
2023-03-16T20:28:24.819Z,100166.12
2023-03-16T20:30:54.020Z,100162.44
2023-03-16T20:33:37.765Z,100158.02
2023-03-16T20:36:07.158Z,100158.39
2023-03-16T20:38:39.778Z,100153.30
2023-03-16T20:41:27.015Z,100151.89
2023-03-16T20:43:55.990Z,100145.66
2023-03-16T20:46:29.083Z,100136.30
2023-03-16T20:48:59.189Z,100132.78
2023-03-16T20:51:29.120Z,100122.34
2023-03-16T20:53:57.894Z,100120.21
2023-03-16T20:56:26.919Z,100119.88
2023-03-16T20:58:57.215Z,100121.85
2023-03-16T21:01:26.632Z,100122.91
2023-03-16T21:03:57.570Z,100117.30
2023-03-16T21:06:28.732Z,100113.96
2023-03-16T21:08:58.570Z,100113.21
2023-03-16T21:11:34.538Z,100108.94
2023-03-16T21:14:03.960Z,100106.34
2023-03-16T21:16:32.358Z,100105.48
2023-03-16T21:19:01.650Z,100105.45
2023-03-16T21:21:30.597Z,100109.38
2023-03-16T21:24:04.524Z,100099.13
2023-03-16T21:26:34.202Z,100098.63
2023-03-16T21:29:06.875Z,100100.04
2023-03-16T21:31:37.464Z,100096.67
2023-03-16T21:34:06.145Z,100093.63
2023-03-16T21:36:34.588Z,100097.14
2023-03-16T21:39:06.636Z,100094.38
2023-03-16T21:41:35.805Z,100095.52
2023-03-16T21:44:07.791Z,100093.21
2023-03-16T21:46:37.528Z,100094.23
2023-03-16T21:49:06.898Z,100099.15
2023-03-16T21:51:36.775Z,100095.84
2023-03-16T21:54:07.951Z,100092.09
2023-03-16T21:56:41.053Z,100085.15
2023-03-16T21:59:10.964Z,100083.27
2023-03-16T22:01:54.631Z,100084.45
2023-03-16T22:04:29.930Z,100076.13
2023-03-16T22:06:58.425Z,100081.14
2023-03-16T22:09:30.579Z,100083.35
2023-03-16T22:11:59.456Z,100077.83
2023-03-16T22:14:31.762Z,100079.16
2023-03-16T22:17:02.971Z,100079.85
2023-03-16T22:19:31.562Z,100080.86
2023-03-16T22:22:03.768Z,100079.10
2023-03-16T22:24:37.366Z,100079.09
2023-03-16T22:27:13.556Z,100079.98
2023-03-16T22:29:44.857Z,100080.07
2023-03-16T22:32:18.253Z,100079.83
2023-03-16T22:34:56.447Z,100076.61
2023-03-16T22:37:28.161Z,100072.95
2023-03-16T22:39:58.774Z,100069.98
2023-03-16T22:42:32.224Z,100067.67
2023-03-16T22:45:01.236Z,100062.23
2023-03-16T22:47:33.676Z,100061.20
2023-03-16T22:50:03.914Z,100055.52
2023-03-16T22:52:34.195Z,100050.92
2023-03-16T22:55:03.334Z,100043.98
2023-03-16T22:57:31.799Z,100036.18
2023-03-16T23:00:07.447Z,100041.61
2023-03-16T23:02:36.726Z,100040.50
2023-03-16T23:05:22.785Z,100040.02
2023-03-16T23:07:52.273Z,100036.59
2023-03-16T23:10:23.254Z,100043.13
2023-03-16T23:13:00.641Z,100037.21
2023-03-16T23:15:30.906Z,100038.14
2023-03-16T23:17:59.658Z,100043.36
2023-03-16T23:20:32.171Z,100043.71
2023-03-16T23:23:01.457Z,100044.45
2023-03-16T23:25:30.408Z,100041.50
2023-03-16T23:27:59.133Z,100038.04
2023-03-16T23:30:27.630Z,100032.32
2023-03-16T23:32:58.078Z,100029.73
2023-03-16T23:35:29.197Z,100029.14
2023-03-16T23:38:01.386Z,100024.52
2023-03-16T23:40:30.678Z,100035.02
2023-03-16T23:42:59.938Z,100037.55
2023-03-16T23:45:31.936Z,100038.77
2023-03-16T23:48:02.984Z,100041.04
2023-03-16T23:50:34.526Z,100047.70
2023-03-16T23:53:03.340Z,100054.30
2023-03-16T23:55:34.824Z,100055.80
2023-03-16T23:58:03.626Z,100063.72
